sensor_id;sensor_type;location;lat;lon;timestamp;P1;durP1;ratioP1;P2;durP2;ratioP2
56481;SDS011;42384;45.186;19.958;2022-07-03T00:01:39;7.45;;;2.67;;
56481;SDS011;42384;45.186;19.958;2022-07-03T00:04:05;21.05;;;4.30;;
56481;SDS011;42384;45.186;19.958;2022-07-03T00:06:32;6.95;;;3.33;;
56481;SDS011;42384;45.186;19.958;2022-07-03T00:08:59;7.97;;;4.22;;
56481;SDS011;42384;45.186;19.958;2022-07-03T00:11:25;5.65;;;2.50;;
56481;SDS011;42384;45.186;19.958;2022-07-03T00:16:18;7.90;;;3.15;;
56481;SDS011;42384;45.186;19.958;2022-07-03T00:18:44;10.90;;;3.55;;
56481;SDS011;42384;45.186;19.958;2022-07-03T00:21:11;8.43;;;3.05;;
56481;SDS011;42384;45.186;19.958;2022-07-03T00:23:51;9.48;;;3.65;;
56481;SDS011;42384;45.186;19.958;2022-07-03T00:26:19;11.13;;;2.65;;
56481;SDS011;42384;45.186;19.958;2022-07-03T00:28:46;7.07;;;2.70;;
56481;SDS011;42384;45.186;19.958;2022-07-03T00:31:13;5.82;;;2.63;;
56481;SDS011;42384;45.186;19.958;2022-07-03T00:33:40;4.68;;;2.63;;
56481;SDS011;42384;45.186;19.958;2022-07-03T00:36:07;9.13;;;3.45;;
56481;SDS011;42384;45.186;19.958;2022-07-03T00:41:02;6.13;;;3.30;;
56481;SDS011;42384;45.186;19.958;2022-07-03T00:43:29;6.43;;;2.72;;
56481;SDS011;42384;45.186;19.958;2022-07-03T00:45:58;7.13;;;2.40;;
56481;SDS011;42384;45.186;19.958;2022-07-03T00:48:29;7.57;;;2.42;;
56481;SDS011;42384;45.186;19.958;2022-07-03T00:50:56;9.23;;;3.03;;
56481;SDS011;42384;45.186;19.958;2022-07-03T00:53:29;7.47;;;2.90;;
56481;SDS011;42384;45.186;19.958;2022-07-03T00:55:55;8.15;;;2.75;;
56481;SDS011;42384;45.186;19.958;2022-07-03T00:58:21;9.00;;;2.65;;
56481;SDS011;42384;45.186;19.958;2022-07-03T01:00:49;8.70;;;2.88;;
56481;SDS011;42384;45.186;19.958;2022-07-03T01:03:17;7.20;;;2.85;;
56481;SDS011;42384;45.186;19.958;2022-07-03T01:05:44;7.70;;;3.00;;
56481;SDS011;42384;45.186;19.958;2022-07-03T01:10:54;4.78;;;2.80;;
56481;SDS011;42384;45.186;19.958;2022-07-03T01:13:25;5.63;;;2.67;;
56481;SDS011;42384;45.186;19.958;2022-07-03T01:15:58;5.80;;;2.67;;
56481;SDS011;42384;45.186;19.958;2022-07-03T01:20:59;8.38;;;3.17;;
56481;SDS011;42384;45.186;19.958;2022-07-03T01:23:37;5.40;;;2.80;;
56481;SDS011;42384;45.186;19.958;2022-07-03T01:26:05;9.43;;;3.08;;
56481;SDS011;42384;45.186;19.958;2022-07-03T01:28:33;13.15;;;2.97;;
56481;SDS011;42384;45.186;19.958;2022-07-03T01:31:02;11.13;;;3.60;;
56481;SDS011;42384;45.186;19.958;2022-07-03T01:38:30;8.07;;;2.90;;
56481;SDS011;42384;45.186;19.958;2022-07-03T01:40:57;5.07;;;2.80;;
56481;SDS011;42384;45.186;19.958;2022-07-03T01:43:33;6.57;;;2.92;;
56481;SDS011;42384;45.186;19.958;2022-07-03T01:46:00;9.43;;;3.20;;
56481;SDS011;42384;45.186;19.958;2022-07-03T01:48:27;6.30;;;2.90;;
56481;SDS011;42384;45.186;19.958;2022-07-03T01:50:57;8.73;;;3.20;;
56481;SDS011;42384;45.186;19.958;2022-07-03T01:53:28;9.55;;;2.83;;
56481;SDS011;42384;45.186;19.958;2022-07-03T01:55:55;9.18;;;3.08;;
56481;SDS011;42384;45.186;19.958;2022-07-03T01:58:22;4.57;;;3.00;;
56481;SDS011;42384;45.186;19.958;2022-07-03T02:01:02;12.20;;;3.35;;
56481;SDS011;42384;45.186;19.958;2022-07-03T02:03:32;9.23;;;3.22;;
56481;SDS011;42384;45.186;19.958;2022-07-03T02:08:48;7.43;;;3.13;;
56481;SDS011;42384;45.186;19.958;2022-07-03T02:11:20;5.30;;;2.78;;
56481;SDS011;42384;45.186;19.958;2022-07-03T02:19:16;6.47;;;3.22;;
56481;SDS011;42384;45.186;19.958;2022-07-03T02:21:47;6.82;;;3.03;;
56481;SDS011;42384;45.186;19.958;2022-07-03T02:24:18;8.57;;;3.30;;
56481;SDS011;42384;45.186;19.958;2022-07-03T02:27:02;6.65;;;2.63;;
56481;SDS011;42384;45.186;19.958;2022-07-03T02:29:33;7.97;;;3.30;;
56481;SDS011;42384;45.186;19.958;2022-07-03T02:32:02;6.18;;;3.10;;
56481;SDS011;42384;45.186;19.958;2022-07-03T02:34:29;9.88;;;3.55;;
56481;SDS011;42384;45.186;19.958;2022-07-03T02:36:58;5.18;;;2.72;;
56481;SDS011;42384;45.186;19.958;2022-07-03T02:41:53;7.50;;;3.10;;
56481;SDS011;42384;45.186;19.958;2022-07-03T02:44:31;11.15;;;3.47;;
56481;SDS011;42384;45.186;19.958;2022-07-03T02:47:02;5.25;;;3.30;;
56481;SDS011;42384;45.186;19.958;2022-07-03T02:52:17;7.72;;;3.47;;
56481;SDS011;42384;45.186;19.958;2022-07-03T02:54:47;4.95;;;3.38;;
56481;SDS011;42384;45.186;19.958;2022-07-03T02:59:56;4.60;;;3.10;;
56481;SDS011;42384;45.186;19.958;2022-07-03T03:04:57;7.50;;;3.30;;
56481;SDS011;42384;45.186;19.958;2022-07-03T03:07:29;4.13;;;3.55;;
56481;SDS011;42384;45.186;19.958;2022-07-03T03:09:59;10.73;;;4.10;;
56481;SDS011;42384;45.186;19.958;2022-07-03T03:12:36;9.75;;;3.83;;
56481;SDS011;42384;45.186;19.958;2022-07-03T03:15:03;7.93;;;3.90;;
56481;SDS011;42384;45.186;19.958;2022-07-03T03:17:43;9.27;;;3.80;;
56481;SDS011;42384;45.186;19.958;2022-07-03T03:20:13;7.85;;;3.97;;
56481;SDS011;42384;45.186;19.958;2022-07-03T03:25:13;6.22;;;3.60;;
56481;SDS011;42384;45.186;19.958;2022-07-03T03:27:39;6.57;;;3.50;;
56481;SDS011;42384;45.186;19.958;2022-07-03T03:32:33;5.95;;;3.90;;
56481;SDS011;42384;45.186;19.958;2022-07-03T03:35:00;7.53;;;4.05;;
56481;SDS011;42384;45.186;19.958;2022-07-03T03:37:27;6.90;;;3.53;;
56481;SDS011;42384;45.186;19.958;2022-07-03T03:39:53;10.30;;;3.72;;
56481;SDS011;42384;45.186;19.958;2022-07-03T03:42:19;5.97;;;3.50;;
56481;SDS011;42384;45.186;19.958;2022-07-03T03:44:46;5.97;;;3.50;;
56481;SDS011;42384;45.186;19.958;2022-07-03T03:47:12;4.70;;;3.50;;
56481;SDS011;42384;45.186;19.958;2022-07-03T03:49:38;5.10;;;3.50;;
56481;SDS011;42384;45.186;19.958;2022-07-03T03:52:04;8.32;;;3.55;;
56481;SDS011;42384;45.186;19.958;2022-07-03T03:54:31;5.57;;;3.30;;
56481;SDS011;42384;45.186;19.958;2022-07-03T03:57:14;4.78;;;3.50;;
56481;SDS011;42384;45.186;19.958;2022-07-03T03:59:41;6.78;;;3.65;;
56481;SDS011;42384;45.186;19.958;2022-07-03T04:02:07;6.68;;;3.53;;
56481;SDS011;42384;45.186;19.958;2022-07-03T04:04:33;11.32;;;3.53;;
56481;SDS011;42384;45.186;19.958;2022-07-03T04:07:00;5.45;;;3.55;;
56481;SDS011;42384;45.186;19.958;2022-07-03T04:09:26;5.15;;;3.10;;
56481;SDS011;42384;45.186;19.958;2022-07-03T04:11:52;6.72;;;3.40;;
56481;SDS011;42384;45.186;19.958;2022-07-03T04:14:18;9.98;;;3.25;;
56481;SDS011;42384;45.186;19.958;2022-07-03T04:16:45;7.63;;;3.60;;
56481;SDS011;42384;45.186;19.958;2022-07-03T04:19:11;4.57;;;3.17;;
56481;SDS011;42384;45.186;19.958;2022-07-03T04:21:37;6.18;;;3.38;;
56481;SDS011;42384;45.186;19.958;2022-07-03T04:24:03;9.15;;;3.45;;
56481;SDS011;42384;45.186;19.958;2022-07-03T04:26:30;8.55;;;3.72;;
56481;SDS011;42384;45.186;19.958;2022-07-03T04:31:22;5.53;;;3.25;;
56481;SDS011;42384;45.186;19.958;2022-07-03T04:33:49;7.88;;;3.30;;
56481;SDS011;42384;45.186;19.958;2022-07-03T04:38:41;14.90;;;4.40;;
56481;SDS011;42384;45.186;19.958;2022-07-03T04:43:34;17.20;;;3.92;;
56481;SDS011;42384;45.186;19.958;2022-07-03T04:46:02;5.13;;;3.53;;
56481;SDS011;42384;45.186;19.958;2022-07-03T04:48:28;7.65;;;3.80;;
56481;SDS011;42384;45.186;19.958;2022-07-03T04:50:55;6.90;;;3.67;;
56481;SDS011;42384;45.186;19.958;2022-07-03T04:53:21;6.97;;;3.65;;
56481;SDS011;42384;45.186;19.958;2022-07-03T04:58:14;6.28;;;3.25;;
56481;SDS011;42384;45.186;19.958;2022-07-03T05:00:40;5.93;;;3.60;;
56481;SDS011;42384;45.186;19.958;2022-07-03T05:03:07;6.80;;;3.55;;
56481;SDS011;42384;45.186;19.958;2022-07-03T05:05:33;6.90;;;3.72;;
56481;SDS011;42384;45.186;19.958;2022-07-03T05:07:59;5.45;;;3.28;;
56481;SDS011;42384;45.186;19.958;2022-07-03T05:10:25;13.85;;;3.70;;
56481;SDS011;42384;45.186;19.958;2022-07-03T05:15:18;6.90;;;3.25;;
56481;SDS011;42384;45.186;19.958;2022-07-03T05:20:11;7.57;;;3.63;;
56481;SDS011;42384;45.186;19.958;2022-07-03T05:22:50;6.93;;;3.22;;
56481;SDS011;42384;45.186;19.958;2022-07-03T05:25:16;12.65;;;3.72;;
56481;SDS011;42384;45.186;19.958;2022-07-03T05:30:09;6.35;;;3.60;;
56481;SDS011;42384;45.186;19.958;2022-07-03T05:32:35;9.75;;;4.22;;
56481;SDS011;42384;45.186;19.958;2022-07-03T05:35:02;11.68;;;4.07;;
56481;SDS011;42384;45.186;19.958;2022-07-03T05:37:28;6.97;;;3.97;;
56481;SDS011;42384;45.186;19.958;2022-07-03T05:39:55;12.38;;;3.88;;
56481;SDS011;42384;45.186;19.958;2022-07-03T05:42:21;9.45;;;3.90;;
56481;SDS011;42384;45.186;19.958;2022-07-03T05:44:49;7.20;;;4.15;;
56481;SDS011;42384;45.186;19.958;2022-07-03T05:47:15;4.90;;;3.70;;
56481;SDS011;42384;45.186;19.958;2022-07-03T05:52:08;8.43;;;4.18;;
56481;SDS011;42384;45.186;19.958;2022-07-03T05:57:00;8.55;;;4.50;;
56481;SDS011;42384;45.186;19.958;2022-07-03T06:01:52;9.20;;;4.10;;
56481;SDS011;42384;45.186;19.958;2022-07-03T06:06:45;14.98;;;4.47;;
56481;SDS011;42384;45.186;19.958;2022-07-03T06:11:37;10.52;;;4.28;;
56481;SDS011;42384;45.186;19.958;2022-07-03T06:14:03;11.50;;;4.25;;
56481;SDS011;42384;45.186;19.958;2022-07-03T06:18:56;6.72;;;4.53;;
56481;SDS011;42384;45.186;19.958;2022-07-03T06:23:48;10.15;;;4.13;;
56481;SDS011;42384;45.186;19.958;2022-07-03T06:28:41;7.85;;;4.32;;
56481;SDS011;42384;45.186;19.958;2022-07-03T06:31:07;10.13;;;3.75;;
56481;SDS011;42384;45.186;19.958;2022-07-03T06:35:59;8.35;;;4.72;;
56481;SDS011;42384;45.186;19.958;2022-07-03T06:40:52;7.55;;;4.78;;
56481;SDS011;42384;45.186;19.958;2022-07-03T06:43:18;14.80;;;4.90;;
56481;SDS011;42384;45.186;19.958;2022-07-03T06:48:10;11.00;;;4.63;;
56481;SDS011;42384;45.186;19.958;2022-07-03T06:50:37;7.85;;;4.93;;
56481;SDS011;42384;45.186;19.958;2022-07-03T06:53:03;11.93;;;4.32;;
56481;SDS011;42384;45.186;19.958;2022-07-03T06:55:29;6.38;;;4.22;;
56481;SDS011;42384;45.186;19.958;2022-07-03T06:57:55;10.13;;;4.20;;
56481;SDS011;42384;45.186;19.958;2022-07-03T07:00:22;11.27;;;4.75;;
56481;SDS011;42384;45.186;19.958;2022-07-03T07:02:48;8.77;;;4.40;;
56481;SDS011;42384;45.186;19.958;2022-07-03T07:05:15;9.55;;;4.55;;
56481;SDS011;42384;45.186;19.958;2022-07-03T07:07:41;7.38;;;4.53;;
56481;SDS011;42384;45.186;19.958;2022-07-03T07:10:07;8.15;;;4.93;;
56481;SDS011;42384;45.186;19.958;2022-07-03T07:12:34;7.22;;;4.82;;
56481;SDS011;42384;45.186;19.958;2022-07-03T07:15:00;8.25;;;5.20;;
56481;SDS011;42384;45.186;19.958;2022-07-03T07:17:26;8.90;;;4.90;;
56481;SDS011;42384;45.186;19.958;2022-07-03T07:22:18;9.05;;;5.07;;
56481;SDS011;42384;45.186;19.958;2022-07-03T07:24:45;6.57;;;4.80;;
56481;SDS011;42384;45.186;19.958;2022-07-03T07:27:11;7.70;;;5.50;;
56481;SDS011;42384;45.186;19.958;2022-07-03T07:29:37;13.57;;;5.15;;
56481;SDS011;42384;45.186;19.958;2022-07-03T07:32:04;7.65;;;5.07;;
56481;SDS011;42384;45.186;19.958;2022-07-03T07:34:30;6.25;;;4.65;;
56481;SDS011;42384;45.186;19.958;2022-07-03T07:36:56;8.63;;;5.00;;
56481;SDS011;42384;45.186;19.958;2022-07-03T07:39:23;14.27;;;5.63;;
56481;SDS011;42384;45.186;19.958;2022-07-03T07:41:49;7.95;;;4.70;;
56481;SDS011;42384;45.186;19.958;2022-07-03T07:44:15;9.48;;;5.32;;
56481;SDS011;42384;45.186;19.958;2022-07-03T07:46:41;6.57;;;5.00;;
56481;SDS011;42384;45.186;19.958;2022-07-03T07:49:08;8.68;;;4.90;;
56481;SDS011;42384;45.186;19.958;2022-07-03T07:51:34;11.68;;;5.82;;
56481;SDS011;42384;45.186;19.958;2022-07-03T07:54:00;11.02;;;4.88;;
56481;SDS011;42384;45.186;19.958;2022-07-03T07:56:27;11.15;;;5.38;;
56481;SDS011;42384;45.186;19.958;2022-07-03T07:58:53;7.78;;;4.75;;
56481;SDS011;42384;45.186;19.958;2022-07-03T08:04:04;8.18;;;4.85;;
56481;SDS011;42384;45.186;19.958;2022-07-03T08:06:49;7.53;;;5.90;;
56481;SDS011;42384;45.186;19.958;2022-07-03T08:09:15;8.30;;;5.60;;
56481;SDS011;42384;45.186;19.958;2022-07-03T08:11:41;10.88;;;5.22;;
56481;SDS011;42384;45.186;19.958;2022-07-03T08:14:08;9.60;;;5.35;;
56481;SDS011;42384;45.186;19.958;2022-07-03T08:16:35;9.25;;;5.80;;
56481;SDS011;42384;45.186;19.958;2022-07-03T08:19:04;12.30;;;6.18;;
56481;SDS011;42384;45.186;19.958;2022-07-03T08:21:30;10.63;;;6.30;;
56481;SDS011;42384;45.186;19.958;2022-07-03T08:23:57;10.18;;;5.85;;
56481;SDS011;42384;45.186;19.958;2022-07-03T08:26:23;7.95;;;5.75;;
56481;SDS011;42384;45.186;19.958;2022-07-03T08:31:16;10.52;;;6.30;;
56481;SDS011;42384;45.186;19.958;2022-07-03T08:36:08;8.45;;;6.43;;
56481;SDS011;42384;45.186;19.958;2022-07-03T08:38:34;12.02;;;6.20;;
56481;SDS011;42384;45.186;19.958;2022-07-03T08:41:01;7.57;;;5.93;;
56481;SDS011;42384;45.186;19.958;2022-07-03T08:43:28;9.30;;;6.10;;
56481;SDS011;42384;45.186;19.958;2022-07-03T08:45:55;10.90;;;6.35;;
56481;SDS011;42384;45.186;19.958;2022-07-03T08:48:22;7.90;;;6.28;;
56481;SDS011;42384;45.186;19.958;2022-07-03T08:50:48;10.73;;;5.88;;
56481;SDS011;42384;45.186;19.958;2022-07-03T08:53:17;8.02;;;6.03;;
56481;SDS011;42384;45.186;19.958;2022-07-03T08:55:44;10.27;;;6.18;;
56481;SDS011;42384;45.186;19.958;2022-07-03T08:58:12;16.77;;;6.38;;
56481;SDS011;42384;45.186;19.958;2022-07-03T09:00:40;8.88;;;6.40;;
56481;SDS011;42384;45.186;19.958;2022-07-03T09:03:09;12.07;;;7.05;;
56481;SDS011;42384;45.186;19.958;2022-07-03T09:05:35;16.98;;;7.38;;
56481;SDS011;42384;45.186;19.958;2022-07-03T09:08:02;10.15;;;6.90;;
56481;SDS011;42384;45.186;19.958;2022-07-03T09:10:28;11.60;;;6.47;;
56481;SDS011;42384;45.186;19.958;2022-07-03T09:15:21;14.20;;;7.63;;
56481;SDS011;42384;45.186;19.958;2022-07-03T09:17:57;19.27;;;7.97;;
56481;SDS011;42384;45.186;19.958;2022-07-03T09:20:28;14.40;;;7.55;;
56481;SDS011;42384;45.186;19.958;2022-07-03T09:22:54;11.63;;;7.10;;
56481;SDS011;42384;45.186;19.958;2022-07-03T09:25:34;10.38;;;6.63;;
56481;SDS011;42384;45.186;19.958;2022-07-03T09:28:00;12.45;;;7.30;;
56481;SDS011;42384;45.186;19.958;2022-07-03T09:32:52;12.52;;;8.07;;
56481;SDS011;42384;45.186;19.958;2022-07-03T09:37:48;12.32;;;7.78;;
56481;SDS011;42384;45.186;19.958;2022-07-03T09:40:15;10.77;;;7.60;;
56481;SDS011;42384;45.186;19.958;2022-07-03T09:43:02;10.05;;;8.23;;
56481;SDS011;42384;45.186;19.958;2022-07-03T09:45:47;10.02;;;7.68;;
56481;SDS011;42384;45.186;19.958;2022-07-03T09:50:49;12.18;;;7.78;;
56481;SDS011;42384;45.186;19.958;2022-07-03T09:53:16;11.80;;;8.18;;
56481;SDS011;42384;45.186;19.958;2022-07-03T09:55:42;14.10;;;7.95;;
56481;SDS011;42384;45.186;19.958;2022-07-03T09:58:22;10.80;;;8.63;;
56481;SDS011;42384;45.186;19.958;2022-07-03T10:00:48;9.85;;;8.40;;
56481;SDS011;42384;45.186;19.958;2022-07-03T10:03:14;9.70;;;7.72;;
56481;SDS011;42384;45.186;19.958;2022-07-03T10:05:41;11.48;;;8.32;;
56481;SDS011;42384;45.186;19.958;2022-07-03T10:10:40;14.23;;;8.07;;
56481;SDS011;42384;45.186;19.958;2022-07-03T10:13:06;12.52;;;7.78;;
56481;SDS011;42384;45.186;19.958;2022-07-03T10:15:33;15.88;;;8.63;;
56481;SDS011;42384;45.186;19.958;2022-07-03T10:18:06;29.10;;;21.55;;
56481;SDS011;42384;45.186;19.958;2022-07-03T10:23:02;11.90;;;7.50;;
56481;SDS011;42384;45.186;19.958;2022-07-03T10:25:31;11.40;;;8.05;;
56481;SDS011;42384;45.186;19.958;2022-07-03T10:27:58;11.25;;;8.27;;
56481;SDS011;42384;45.186;19.958;2022-07-03T10:30:24;15.25;;;7.75;;
56481;SDS011;42384;45.186;19.958;2022-07-03T10:32:52;11.75;;;7.43;;
56481;SDS011;42384;45.186;19.958;2022-07-03T10:35:21;12.02;;;7.75;;
56481;SDS011;42384;45.186;19.958;2022-07-03T10:37:56;14.55;;;8.57;;
56481;SDS011;42384;45.186;19.958;2022-07-03T10:40:29;8.82;;;7.68;;
56481;SDS011;42384;45.186;19.958;2022-07-03T10:43:21;14.23;;;8.35;;
56481;SDS011;42384;45.186;19.958;2022-07-03T10:46:09;16.40;;;8.70;;
56481;SDS011;42384;45.186;19.958;2022-07-03T10:51:17;11.38;;;7.82;;
56481;SDS011;42384;45.186;19.958;2022-07-03T10:53:43;10.40;;;8.40;;
56481;SDS011;42384;45.186;19.958;2022-07-03T10:56:10;12.82;;;8.07;;
56481;SDS011;42384;45.186;19.958;2022-07-03T10:58:55;10.68;;;7.95;;
56481;SDS011;42384;45.186;19.958;2022-07-03T11:01:28;11.20;;;7.82;;
56481;SDS011;42384;45.186;19.958;2022-07-03T11:03:57;10.80;;;8.18;;
56481;SDS011;42384;45.186;19.958;2022-07-03T11:09:13;10.15;;;7.53;;
56481;SDS011;42384;45.186;19.958;2022-07-03T11:11:41;9.70;;;8.43;;
56481;SDS011;42384;45.186;19.958;2022-07-03T11:14:20;11.23;;;8.02;;
56481;SDS011;42384;45.186;19.958;2022-07-03T11:16:46;13.77;;;8.43;;
56481;SDS011;42384;45.186;19.958;2022-07-03T11:19:12;10.73;;;8.35;;
56481;SDS011;42384;45.186;19.958;2022-07-03T11:21:42;9.07;;;7.82;;
56481;SDS011;42384;45.186;19.958;2022-07-03T11:24:20;10.68;;;8.45;;
56481;SDS011;42384;45.186;19.958;2022-07-03T11:29:36;15.57;;;8.45;;
56481;SDS011;42384;45.186;19.958;2022-07-03T11:34:46;10.05;;;7.85;;
56481;SDS011;42384;45.186;19.958;2022-07-03T11:37:19;12.57;;;8.77;;
56481;SDS011;42384;45.186;19.958;2022-07-03T11:39:46;9.80;;;7.80;;
56481;SDS011;42384;45.186;19.958;2022-07-03T11:42:14;10.48;;;7.80;;
56481;SDS011;42384;45.186;19.958;2022-07-03T11:44:41;15.70;;;8.15;;
56481;SDS011;42384;45.186;19.958;2022-07-03T11:47:07;13.05;;;8.60;;
56481;SDS011;42384;45.186;19.958;2022-07-03T11:49:34;13.75;;;8.10;;
56481;SDS011;42384;45.186;19.958;2022-07-03T11:52:01;12.93;;;8.27;;
56481;SDS011;42384;45.186;19.958;2022-07-03T11:54:31;11.07;;;8.02;;
56481;SDS011;42384;45.186;19.958;2022-07-03T11:56:58;15.07;;;8.57;;
56481;SDS011;42384;45.186;19.958;2022-07-03T11:59:25;11.75;;;7.88;;
56481;SDS011;42384;45.186;19.958;2022-07-03T12:01:53;12.27;;;7.95;;
56481;SDS011;42384;45.186;19.958;2022-07-03T12:04:26;17.05;;;8.60;;
56481;SDS011;42384;45.186;19.958;2022-07-03T12:06:55;13.23;;;10.32;;
56481;SDS011;42384;45.186;19.958;2022-07-03T12:09:32;12.48;;;8.90;;
56481;SDS011;42384;45.186;19.958;2022-07-03T12:11:59;14.55;;;8.55;;
56481;SDS011;42384;45.186;19.958;2022-07-03T12:14:39;13.65;;;7.75;;
56481;SDS011;42384;45.186;19.958;2022-07-03T12:17:06;16.13;;;9.52;;
56481;SDS011;42384;45.186;19.958;2022-07-03T12:19:33;13.30;;;8.75;;
56481;SDS011;42384;45.186;19.958;2022-07-03T12:22:00;13.82;;;8.07;;
56481;SDS011;42384;45.186;19.958;2022-07-03T12:24:26;11.32;;;8.63;;
56481;SDS011;42384;45.186;19.958;2022-07-03T12:26:52;11.15;;;9.05;;
56481;SDS011;42384;45.186;19.958;2022-07-03T12:29:19;13.10;;;8.77;;
56481;SDS011;42384;45.186;19.958;2022-07-03T12:31:46;12.77;;;8.60;;
56481;SDS011;42384;45.186;19.958;2022-07-03T12:34:13;10.30;;;8.20;;
56481;SDS011;42384;45.186;19.958;2022-07-03T12:36:40;12.38;;;8.65;;
56481;SDS011;42384;45.186;19.958;2022-07-03T12:39:06;11.93;;;9.00;;
56481;SDS011;42384;45.186;19.958;2022-07-03T12:41:33;13.70;;;8.43;;
56481;SDS011;42384;45.186;19.958;2022-07-03T12:43:59;11.63;;;7.93;;
56481;SDS011;42384;45.186;19.958;2022-07-03T12:46:26;13.10;;;9.05;;
56481;SDS011;42384;45.186;19.958;2022-07-03T12:48:54;11.85;;;8.07;;
56481;SDS011;42384;45.186;19.958;2022-07-03T12:51:40;10.80;;;8.38;;
56481;SDS011;42384;45.186;19.958;2022-07-03T12:54:48;12.98;;;8.60;;
56481;SDS011;42384;45.186;19.958;2022-07-03T12:57:28;12.90;;;8.50;;
56481;SDS011;42384;45.186;19.958;2022-07-03T13:00:10;15.40;;;8.77;;
56481;SDS011;42384;45.186;19.958;2022-07-03T13:02:40;11.32;;;9.00;;
56481;SDS011;42384;45.186;19.958;2022-07-03T13:05:19;11.23;;;8.95;;
56481;SDS011;42384;45.186;19.958;2022-07-03T13:07:46;11.07;;;8.35;;
56481;SDS011;42384;45.186;19.958;2022-07-03T13:10:14;11.32;;;8.43;;
56481;SDS011;42384;45.186;19.958;2022-07-03T13:15:16;11.93;;;8.75;;
56481;SDS011;42384;45.186;19.958;2022-07-03T13:17:51;11.13;;;9.32;;
56481;SDS011;42384;45.186;19.958;2022-07-03T13:20:17;16.05;;;9.32;;
56481;SDS011;42384;45.186;19.958;2022-07-03T13:22:43;10.48;;;9.38;;
56481;SDS011;42384;45.186;19.958;2022-07-03T13:25:09;13.38;;;9.25;;
56481;SDS011;42384;45.186;19.958;2022-07-03T13:27:35;10.02;;;9.02;;
56481;SDS011;42384;45.186;19.958;2022-07-03T13:30:02;11.60;;;8.30;;
56481;SDS011;42384;45.186;19.958;2022-07-03T13:32:28;13.48;;;9.13;;
56481;SDS011;42384;45.186;19.958;2022-07-03T13:34:54;14.32;;;9.50;;
56481;SDS011;42384;45.186;19.958;2022-07-03T13:37:21;9.95;;;8.95;;
56481;SDS011;42384;45.186;19.958;2022-07-03T13:39:47;10.70;;;9.38;;
56481;SDS011;42384;45.186;19.958;2022-07-03T13:42:13;13.43;;;8.90;;
56481;SDS011;42384;45.186;19.958;2022-07-03T13:44:40;16.63;;;8.63;;
56481;SDS011;42384;45.186;19.958;2022-07-03T13:47:06;17.20;;;10.48;;
56481;SDS011;42384;45.186;19.958;2022-07-03T13:49:32;11.45;;;9.55;;
56481;SDS011;42384;45.186;19.958;2022-07-03T13:51:58;10.50;;;8.88;;
56481;SDS011;42384;45.186;19.958;2022-07-03T13:54:25;12.52;;;8.65;;
56481;SDS011;42384;45.186;19.958;2022-07-03T13:56:51;14.05;;;9.10;;
56481;SDS011;42384;45.186;19.958;2022-07-03T13:59:17;17.50;;;9.00;;
56481;SDS011;42384;45.186;19.958;2022-07-03T14:01:44;13.23;;;8.13;;
56481;SDS011;42384;45.186;19.958;2022-07-03T14:04:10;10.63;;;7.97;;
56481;SDS011;42384;45.186;19.958;2022-07-03T14:06:37;12.45;;;8.75;;
56481;SDS011;42384;45.186;19.958;2022-07-03T14:09:03;12.20;;;8.65;;
56481;SDS011;42384;45.186;19.958;2022-07-03T14:11:29;12.63;;;9.15;;
56481;SDS011;42384;45.186;19.958;2022-07-03T14:13:55;12.15;;;8.95;;
56481;SDS011;42384;45.186;19.958;2022-07-03T14:16:22;9.57;;;8.63;;
56481;SDS011;42384;45.186;19.958;2022-07-03T14:18:48;10.55;;;8.50;;
56481;SDS011;42384;45.186;19.958;2022-07-03T14:21:14;11.18;;;8.45;;
56481;SDS011;42384;45.186;19.958;2022-07-03T14:23:41;9.57;;;8.65;;
56481;SDS011;42384;45.186;19.958;2022-07-03T14:26:07;12.07;;;8.45;;
56481;SDS011;42384;45.186;19.958;2022-07-03T14:28:34;12.45;;;8.68;;
56481;SDS011;42384;45.186;19.958;2022-07-03T14:31:18;12.18;;;8.95;;
56481;SDS011;42384;45.186;19.958;2022-07-03T14:33:51;16.17;;;9.27;;
56481;SDS011;42384;45.186;19.958;2022-07-03T14:36:17;19.15;;;10.02;;
56481;SDS011;42384;45.186;19.958;2022-07-03T14:38:44;12.30;;;9.00;;
56481;SDS011;42384;45.186;19.958;2022-07-03T14:41:10;15.07;;;9.73;;
56481;SDS011;42384;45.186;19.958;2022-07-03T14:43:37;11.45;;;8.73;;
56481;SDS011;42384;45.186;19.958;2022-07-03T14:46:03;12.48;;;8.45;;
56481;SDS011;42384;45.186;19.958;2022-07-03T14:48:29;12.77;;;8.90;;
56481;SDS011;42384;45.186;19.958;2022-07-03T14:50:56;11.30;;;8.30;;
56481;SDS011;42384;45.186;19.958;2022-07-03T14:53:22;13.13;;;7.95;;
56481;SDS011;42384;45.186;19.958;2022-07-03T14:55:49;12.82;;;9.00;;
56481;SDS011;42384;45.186;19.958;2022-07-03T14:58:20;10.63;;;8.93;;
56481;SDS011;42384;45.186;19.958;2022-07-03T15:00:48;14.35;;;8.90;;
56481;SDS011;42384;45.186;19.958;2022-07-03T15:03:16;10.48;;;8.60;;
56481;SDS011;42384;45.186;19.958;2022-07-03T15:05:43;14.02;;;8.48;;
56481;SDS011;42384;45.186;19.958;2022-07-03T15:10:41;12.85;;;8.30;;
56481;SDS011;42384;45.186;19.958;2022-07-03T15:13:07;10.75;;;8.30;;
56481;SDS011;42384;45.186;19.958;2022-07-03T15:15:33;10.63;;;8.68;;
56481;SDS011;42384;45.186;19.958;2022-07-03T15:18:00;13.10;;;9.02;;
56481;SDS011;42384;45.186;19.958;2022-07-03T15:20:31;14.48;;;9.30;;
56481;SDS011;42384;45.186;19.958;2022-07-03T15:22:59;12.18;;;8.57;;
56481;SDS011;42384;45.186;19.958;2022-07-03T15:25:26;14.30;;;8.70;;
56481;SDS011;42384;45.186;19.958;2022-07-03T15:27:54;10.32;;;8.50;;
56481;SDS011;42384;45.186;19.958;2022-07-03T15:30:20;9.10;;;8.15;;
56481;SDS011;42384;45.186;19.958;2022-07-03T15:32:48;12.82;;;8.60;;
56481;SDS011;42384;45.186;19.958;2022-07-03T15:35:15;10.60;;;9.02;;
56481;SDS011;42384;45.186;19.958;2022-07-03T15:37:50;10.43;;;7.70;;
56481;SDS011;42384;45.186;19.958;2022-07-03T15:40:34;13.32;;;8.77;;
56481;SDS011;42384;45.186;19.958;2022-07-03T15:53:14;14.82;;;10.90;;
56481;SDS011;42384;45.186;19.958;2022-07-03T15:55:44;13.50;;;9.23;;
56481;SDS011;42384;45.186;19.958;2022-07-03T15:58:11;15.35;;;11.07;;
56481;SDS011;42384;45.186;19.958;2022-07-03T16:00:39;14.15;;;8.55;;
56481;SDS011;42384;45.186;19.958;2022-07-03T16:05:51;12.88;;;8.00;;
56481;SDS011;42384;45.186;19.958;2022-07-03T16:08:18;14.43;;;8.75;;
56481;SDS011;42384;45.186;19.958;2022-07-03T16:10:45;10.35;;;7.80;;
56481;SDS011;42384;45.186;19.958;2022-07-03T16:13:11;14.55;;;9.55;;
56481;SDS011;42384;45.186;19.958;2022-07-03T16:15:38;17.67;;;9.32;;
56481;SDS011;42384;45.186;19.958;2022-07-03T16:18:05;9.75;;;7.68;;
56481;SDS011;42384;45.186;19.958;2022-07-03T16:20:33;13.73;;;9.77;;
56481;SDS011;42384;45.186;19.958;2022-07-03T16:23:03;12.00;;;8.95;;
56481;SDS011;42384;45.186;19.958;2022-07-03T16:25:33;14.10;;;8.65;;
56481;SDS011;42384;45.186;19.958;2022-07-03T16:28:03;10.98;;;8.07;;
56481;SDS011;42384;45.186;19.958;2022-07-03T16:30:31;12.82;;;8.07;;
56481;SDS011;42384;45.186;19.958;2022-07-03T16:32:57;9.35;;;8.45;;
56481;SDS011;42384;45.186;19.958;2022-07-03T16:37:51;14.80;;;9.43;;
56481;SDS011;42384;45.186;19.958;2022-07-03T16:40:20;12.45;;;8.45;;
56481;SDS011;42384;45.186;19.958;2022-07-03T16:42:47;16.90;;;9.63;;
56481;SDS011;42384;45.186;19.958;2022-07-03T16:45:15;11.20;;;9.27;;
56481;SDS011;42384;45.186;19.958;2022-07-03T16:47:43;16.50;;;8.45;;
56481;SDS011;42384;45.186;19.958;2022-07-03T16:50:10;13.40;;;8.98;;
56481;SDS011;42384;45.186;19.958;2022-07-03T16:52:37;13.35;;;8.52;;